createdAt,value
2023-03-03T00:01:07.072Z,8.80
2023-03-03T00:03:35.431Z,9.40
2023-03-03T00:06:05.121Z,9.23
2023-03-03T00:08:33.579Z,8.65
2023-03-03T00:11:03.243Z,9.82
2023-03-03T00:13:32.949Z,9.10
2023-03-03T00:16:17.703Z,8.65
2023-03-03T00:18:47.642Z,9.60
2023-03-03T00:21:29.360Z,10.32
2023-03-03T00:24:13.157Z,9.38
2023-03-03T00:26:43.255Z,8.90
2023-03-03T00:29:36.137Z,10.80
2023-03-03T00:32:27.438Z,10.50
2023-03-03T00:34:57.352Z,10.68
2023-03-03T00:37:31.646Z,9.82
2023-03-03T00:40:20.236Z,10.05
2023-03-03T00:42:52.092Z,10.20
2023-03-03T00:45:28.252Z,9.55
2023-03-03T00:47:59.091Z,10.98
2023-03-03T00:50:32.756Z,10.57
2023-03-03T00:53:04.631Z,10.95
2023-03-03T00:55:33.371Z,11.20
2023-03-03T00:58:01.656Z,11.63
2023-03-03T01:00:29.799Z,11.35
2023-03-03T01:03:03.011Z,10.93
2023-03-03T01:05:31.194Z,11.60
2023-03-03T01:07:59.236Z,11.98
2023-03-03T01:10:29.375Z,11.63
2023-03-03T01:12:58.412Z,12.75
2023-03-03T01:15:26.592Z,11.20
2023-03-03T01:17:55.411Z,11.07
2023-03-03T01:20:24.881Z,12.10
2023-03-03T01:22:52.887Z,11.05
2023-03-03T01:25:20.855Z,11.35
2023-03-03T01:27:49.184Z,10.35
2023-03-03T01:30:17.865Z,9.95
2023-03-03T01:32:45.980Z,10.07
2023-03-03T01:35:14.101Z,9.80
2023-03-03T01:37:43.476Z,9.50
2023-03-03T01:40:16.253Z,10.13
2023-03-03T01:42:44.270Z,9.80
2023-03-03T01:45:16.853Z,9.13
2023-03-03T01:47:49.978Z,9.32
2023-03-03T01:50:29.601Z,9.40
2023-03-03T01:53:00.955Z,8.82
2023-03-03T01:55:33.180Z,8.90
2023-03-03T01:58:06.078Z,8.55
2023-03-03T02:00:37.380Z,8.10
2023-03-03T02:03:06.417Z,7.90
2023-03-03T02:05:36.363Z,8.47
2023-03-03T02:08:06.307Z,7.63
2023-03-03T02:10:34.314Z,7.13
2023-03-03T02:13:02.339Z,7.32
2023-03-03T02:15:32.700Z,7.40
2023-03-03T02:18:04.187Z,8.30
2023-03-03T02:20:44.718Z,8.10
2023-03-03T02:23:22.040Z,7.60
2023-03-03T02:26:02.981Z,7.45
2023-03-03T02:28:33.078Z,7.70
2023-03-03T02:31:02.706Z,7.57
2023-03-03T02:33:30.930Z,8.20
2023-03-03T02:35:59.008Z,7.50
2023-03-03T02:38:29.073Z,6.70
2023-03-03T02:41:04.824Z,6.75
2023-03-03T02:43:40.341Z,6.72
2023-03-03T02:46:08.433Z,7.60
2023-03-03T02:48:36.381Z,8.88
2023-03-03T02:51:04.431Z,7.80
2023-03-03T02:53:32.430Z,7.28
2023-03-03T02:56:00.349Z,7.75
2023-03-03T02:58:29.698Z,9.00
2023-03-03T03:00:57.936Z,10.00
2023-03-03T03:03:26.124Z,10.38
2023-03-03T03:05:54.100Z,10.15
2023-03-03T03:08:22.177Z,10.20
2023-03-03T03:10:50.242Z,10.90
2023-03-03T03:13:18.593Z,11.63
2023-03-03T03:15:48.398Z,11.70
2023-03-03T03:18:17.185Z,12.27
2023-03-03T03:20:46.958Z,11.17
2023-03-03T03:23:16.648Z,12.57
2023-03-03T03:25:46.711Z,12.00
2023-03-03T03:28:15.596Z,12.82
2023-03-03T03:30:45.736Z,13.13
2023-03-03T03:33:15.179Z,13.40
2023-03-03T03:35:45.642Z,13.30
2023-03-03T03:38:14.070Z,12.20
2023-03-03T03:40:42.670Z,11.45
2023-03-03T03:43:10.887Z,11.35
2023-03-03T03:45:38.859Z,11.60
2023-03-03T03:48:07.371Z,11.38
2023-03-03T03:50:37.015Z,11.25
2023-03-03T03:53:05.253Z,10.88
2023-03-03T03:55:33.791Z,11.20
2023-03-03T03:58:01.760Z,11.50
2023-03-03T04:00:29.778Z,12.10
2023-03-03T04:02:57.933Z,11.95
2023-03-03T04:05:26.126Z,10.13
2023-03-03T04:07:55.491Z,11.70
2023-03-03T04:10:23.515Z,11.30
2023-03-03T04:12:51.466Z,12.18
2023-03-03T04:15:19.658Z,12.25
2023-03-03T04:17:47.615Z,12.77
2023-03-03T04:20:16.382Z,12.43
2023-03-03T04:22:45.109Z,12.70
2023-03-03T04:25:16.601Z,12.68
2023-03-03T04:27:45.429Z,13.90
2023-03-03T04:30:15.807Z,13.00
2023-03-03T04:32:43.965Z,13.13
2023-03-03T04:35:12.445Z,12.20
2023-03-03T04:37:40.841Z,12.32
2023-03-03T04:40:11.313Z,12.20
2023-03-03T04:42:40.712Z,12.63
2023-03-03T04:45:09.654Z,11.07
2023-03-03T04:47:37.678Z,12.07
2023-03-03T04:50:06.435Z,11.93
2023-03-03T04:52:34.481Z,11.60
2023-03-03T04:55:02.525Z,11.27
2023-03-03T04:57:30.471Z,12.00
2023-03-03T04:59:59.838Z,11.35
2023-03-03T05:02:27.866Z,11.98
2023-03-03T05:04:55.980Z,11.02
2023-03-03T05:07:24.720Z,10.60
2023-03-03T05:09:52.777Z,11.20
2023-03-03T05:12:21.225Z,11.93
2023-03-03T05:14:49.162Z,11.27
2023-03-03T05:17:18.603Z,12.07
2023-03-03T05:19:46.612Z,12.67
2023-03-03T05:22:14.562Z,11.50
2023-03-03T05:24:43.910Z,11.80
2023-03-03T05:27:11.930Z,12.68
2023-03-03T05:29:39.945Z,12.00
2023-03-03T05:32:08.062Z,12.60
2023-03-03T05:34:37.644Z,13.00
2023-03-03T05:37:06.746Z,11.90
2023-03-03T05:39:35.241Z,12.43
2023-03-03T05:42:03.782Z,12.52
2023-03-03T05:44:31.792Z,12.90
2023-03-03T05:46:59.849Z,13.48
2023-03-03T05:49:27.899Z,13.38
2023-03-03T05:51:57.223Z,12.73
2023-03-03T05:54:25.524Z,12.52
2023-03-03T05:56:53.519Z,12.30
2023-03-03T05:59:21.715Z,12.77
2023-03-03T06:01:49.715Z,13.52
2023-03-03T06:04:17.968Z,13.30
2023-03-03T06:06:45.978Z,12.20
2023-03-03T06:09:16.087Z,12.15
2023-03-03T06:11:44.099Z,11.43
2023-03-03T06:14:12.099Z,11.50
2023-03-03T06:16:40.309Z,12.68
2023-03-03T06:19:08.252Z,11.93
2023-03-03T06:21:36.175Z,11.87
2023-03-03T06:24:04.186Z,11.87
2023-03-03T06:26:34.179Z,11.02
2023-03-03T06:29:02.624Z,11.23
2023-03-03T06:31:30.669Z,11.55
2023-03-03T06:33:58.686Z,12.38
2023-03-03T06:36:27.250Z,13.03
2023-03-03T06:38:55.289Z,11.38
2023-03-03T06:41:23.235Z,11.23
2023-03-03T06:43:52.631Z,10.90
2023-03-03T06:46:20.623Z,12.38
2023-03-03T06:48:48.679Z,12.55
2023-03-03T06:51:26.712Z,12.77
2023-03-03T06:53:56.988Z,11.93
2023-03-03T06:56:26.043Z,12.25
2023-03-03T06:58:58.627Z,13.53
2023-03-03T07:01:26.727Z,11.68
2023-03-03T07:03:55.694Z,12.98
2023-03-03T07:06:25.438Z,12.90
2023-03-03T07:08:53.856Z,12.40
2023-03-03T07:11:23.714Z,12.80
2023-03-03T07:13:53.472Z,12.70
2023-03-03T07:16:27.751Z,13.10
2023-03-03T07:18:56.723Z,13.65
2023-03-03T07:21:27.433Z,13.50
2023-03-03T07:23:55.520Z,13.27
2023-03-03T07:26:30.593Z,12.65
2023-03-03T07:29:01.978Z,12.85
2023-03-03T07:31:37.377Z,12.37
2023-03-03T07:34:18.532Z,13.93
2023-03-03T07:36:47.082Z,13.70
2023-03-03T07:39:31.642Z,12.70
2023-03-03T07:42:19.338Z,13.27
2023-03-03T07:44:53.233Z,12.50
2023-03-03T07:47:26.066Z,12.60
2023-03-03T07:49:55.813Z,12.77
2023-03-03T07:52:38.326Z,13.23
2023-03-03T07:55:28.174Z,12.82
2023-03-03T07:57:59.224Z,12.60
2023-03-03T08:01:12.943Z,12.48
2023-03-03T08:03:46.071Z,12.10
2023-03-03T08:06:59.077Z,11.98
2023-03-03T08:09:44.885Z,11.65
2023-03-03T08:12:28.845Z,10.40
2023-03-03T08:14:59.371Z,9.95
2023-03-03T08:17:36.276Z,11.13
2023-03-03T08:20:25.499Z,10.70
2023-03-03T08:22:53.466Z,11.05
2023-03-03T08:25:21.484Z,10.70
2023-03-03T08:27:49.501Z,10.23
2023-03-03T08:30:18.074Z,10.40
2023-03-03T08:32:46.114Z,10.80
2023-03-03T08:35:15.673Z,10.80
2023-03-03T08:37:43.731Z,10.30
2023-03-03T08:40:12.796Z,10.90
2023-03-03T08:42:40.815Z,10.00
2023-03-03T08:45:09.151Z,10.65
2023-03-03T08:47:37.180Z,9.98
2023-03-03T08:50:05.939Z,9.90
2023-03-03T08:52:35.266Z,9.75
2023-03-03T08:55:03.235Z,9.17
2023-03-03T08:57:31.265Z,9.65
2023-03-03T08:59:59.293Z,10.48
2023-03-03T09:02:27.259Z,9.50
2023-03-03T09:04:55.310Z,10.20
2023-03-03T09:07:23.295Z,10.25
2023-03-03T09:09:52.599Z,10.63
2023-03-03T09:12:26.136Z,9.77
2023-03-03T09:14:54.155Z,10.25
2023-03-03T09:17:29.443Z,9.50
2023-03-03T09:20:00.684Z,8.63
2023-03-03T09:22:29.985Z,9.32
2023-03-03T09:25:02.055Z,9.35
2023-03-03T09:27:31.951Z,9.38
2023-03-03T09:30:03.827Z,9.13
2023-03-03T09:32:35.984Z,7.88
2023-03-03T09:35:36.499Z,8.30
2023-03-03T09:38:22.440Z,9.10
2023-03-03T09:41:09.021Z,8.32
2023-03-03T09:43:42.973Z,7.88
2023-03-03T09:46:19.210Z,7.90
2023-03-03T09:48:59.368Z,7.05
2023-03-03T09:52:05.234Z,7.18
2023-03-03T09:54:54.232Z,7.13
2023-03-03T09:57:30.482Z,7.13
2023-03-03T10:00:13.110Z,6.50
2023-03-03T10:02:55.047Z,5.88
2023-03-03T10:05:36.280Z,6.35
2023-03-03T10:08:19.872Z,6.20
2023-03-03T10:10:57.892Z,6.35
2023-03-03T10:13:42.223Z,6.78
2023-03-03T10:16:32.370Z,6.60
2023-03-03T10:19:04.046Z,6.40
2023-03-03T10:21:38.193Z,6.05
2023-03-03T10:24:20.743Z,6.40
2023-03-03T10:27:13.590Z,6.00
2023-03-03T10:29:54.702Z,6.78
2023-03-03T10:32:45.579Z,6.80
2023-03-03T10:35:34.342Z,5.70
2023-03-03T10:38:22.420Z,5.90
2023-03-03T10:40:57.065Z,5.35
2023-03-03T10:43:46.809Z,4.78
2023-03-03T10:46:39.547Z,5.73
2023-03-03T10:49:22.388Z,5.68
2023-03-03T10:52:07.532Z,5.07
2023-03-03T10:54:53.004Z,3.50
2023-03-03T10:57:30.352Z,4.10
2023-03-03T11:00:09.322Z,3.40
2023-03-03T11:02:48.535Z,4.20
2023-03-03T11:05:30.342Z,4.65
2023-03-03T11:08:03.260Z,4.88
2023-03-03T11:10:52.030Z,4.28
2023-03-03T11:13:26.503Z,4.40
2023-03-03T11:16:15.924Z,3.45
2023-03-03T11:18:58.193Z,3.90
2023-03-03T11:21:34.164Z,3.60
2023-03-03T11:24:14.013Z,4.05
2023-03-03T11:27:09.913Z,4.38
2023-03-03T11:29:54.900Z,3.80
2023-03-03T11:32:34.155Z,3.57
2023-03-03T11:35:19.447Z,3.00
2023-03-03T11:37:58.252Z,2.50
2023-03-03T11:40:29.743Z,3.10
2023-03-03T11:43:05.090Z,3.28
2023-03-03T11:45:40.820Z,3.17
2023-03-03T11:48:17.908Z,3.20
2023-03-03T11:50:56.458Z,2.65
2023-03-03T11:53:35.892Z,2.70
2023-03-03T11:56:16.170Z,2.40
2023-03-03T11:58:47.976Z,2.60
2023-03-03T12:01:23.627Z,2.40
2023-03-03T12:03:57.655Z,3.08
2023-03-03T12:06:34.260Z,3.00
2023-03-03T12:09:18.668Z,3.00
2023-03-03T12:11:54.067Z,2.20
2023-03-03T12:14:36.573Z,2.37
2023-03-03T12:17:11.387Z,2.60
2023-03-03T12:19:49.304Z,2.30
2023-03-03T12:22:34.748Z,1.70
2023-03-03T12:25:23.659Z,2.20
2023-03-03T12:27:57.502Z,2.17
2023-03-03T12:30:40.936Z,2.35
2023-03-03T12:33:19.338Z,2.15
2023-03-03T12:35:55.905Z,2.20
2023-03-03T12:38:36.130Z,2.50
2023-03-03T12:41:10.351Z,2.20
2023-03-03T12:43:56.134Z,2.67
2023-03-03T12:46:30.681Z,3.28
2023-03-03T12:48:58.717Z,2.50
2023-03-03T12:51:38.710Z,2.10
2023-03-03T12:54:36.973Z,2.00
2023-03-03T12:57:16.016Z,1.90
2023-03-03T12:59:51.784Z,2.30
2023-03-03T13:02:47.730Z,2.30
2023-03-03T13:05:24.678Z,2.10
2023-03-03T13:08:06.380Z,2.90
2023-03-03T13:10:42.951Z,2.90
2023-03-03T13:13:17.897Z,2.40
2023-03-03T13:16:01.038Z,2.67
2023-03-03T13:18:38.841Z,2.50
2023-03-03T13:21:12.030Z,2.40
2023-03-03T13:23:48.548Z,1.83
2023-03-03T13:26:23.778Z,2.10
2023-03-03T13:29:00.761Z,2.70
2023-03-03T13:31:34.152Z,2.30
2023-03-03T13:34:03.089Z,2.38
2023-03-03T13:36:35.982Z,1.73
2023-03-03T13:39:15.397Z,2.10
2023-03-03T13:41:50.640Z,1.52
2023-03-03T13:44:24.371Z,1.90
2023-03-03T13:47:04.401Z,2.13
2023-03-03T13:49:47.670Z,2.10
2023-03-03T13:52:22.307Z,2.47
2023-03-03T13:55:06.595Z,2.35
2023-03-03T13:57:59.968Z,1.75
2023-03-03T14:00:53.433Z,1.50
2023-03-03T14:03:37.161Z,1.52
2023-03-03T14:06:07.218Z,2.00
2023-03-03T14:08:56.058Z,1.88
2023-03-03T14:11:27.973Z,1.60
2023-03-03T14:14:05.992Z,2.25
2023-03-03T14:16:44.594Z,2.60
2023-03-03T14:19:18.233Z,2.10
2023-03-03T14:21:54.016Z,1.70
2023-03-03T14:24:25.284Z,1.50
2023-03-03T14:26:55.326Z,1.80
2023-03-03T14:29:32.557Z,1.70
2023-03-03T14:32:02.517Z,2.30
2023-03-03T14:34:37.409Z,2.25
2023-03-03T14:37:27.100Z,2.80
2023-03-03T14:40:27.565Z,2.00
2023-03-03T14:42:58.839Z,1.92
2023-03-03T14:45:36.118Z,1.88
2023-03-03T14:48:15.865Z,2.20
2023-03-03T14:50:49.637Z,1.85
2023-03-03T14:53:23.926Z,3.00
2023-03-03T14:55:53.845Z,3.30
2023-03-03T14:58:31.209Z,2.60
2023-03-03T15:01:14.065Z,2.90
2023-03-03T15:03:49.193Z,2.10
2023-03-03T15:06:31.572Z,1.77
2023-03-03T15:09:26.575Z,2.00
2023-03-03T15:11:56.026Z,2.15
2023-03-03T15:14:30.924Z,2.50
2023-03-03T15:17:20.270Z,3.22
2023-03-03T15:19:55.485Z,4.30
2023-03-03T15:22:48.255Z,5.60
2023-03-03T15:25:42.808Z,3.30
2023-03-03T15:28:27.813Z,3.70
2023-03-03T15:31:02.750Z,2.97
2023-03-03T15:33:38.731Z,2.75
2023-03-03T15:36:15.124Z,2.70
2023-03-03T15:38:57.001Z,2.80
2023-03-03T15:41:41.946Z,3.00
2023-03-03T15:44:22.072Z,2.50
2023-03-03T15:47:13.046Z,2.05
2023-03-03T15:49:58.330Z,2.70
2023-03-03T15:52:39.451Z,3.17
2023-03-03T15:55:33.352Z,2.60
2023-03-03T15:58:21.110Z,2.88
2023-03-03T16:01:02.126Z,2.97
2023-03-03T16:03:36.420Z,2.50
2023-03-03T16:06:12.076Z,2.60
2023-03-03T16:08:50.441Z,2.60
2023-03-03T16:11:24.221Z,2.15
2023-03-03T16:14:05.006Z,1.80
2023-03-03T16:16:44.155Z,2.07
2023-03-03T16:19:25.876Z,2.78
2023-03-03T16:22:17.270Z,3.00
2023-03-03T16:25:00.206Z,2.20
2023-03-03T16:27:35.415Z,2.55
2023-03-03T16:30:15.753Z,1.95
2023-03-03T16:32:48.724Z,2.00
2023-03-03T16:35:23.352Z,2.60
2023-03-03T16:37:59.606Z,2.67
2023-03-03T16:40:32.886Z,2.70
2023-03-03T16:43:11.079Z,2.78
2023-03-03T16:45:41.286Z,2.70
2023-03-03T16:48:22.243Z,2.70
2023-03-03T16:50:58.794Z,2.50
2023-03-03T16:53:53.810Z,2.50
2023-03-03T16:56:25.196Z,3.10
2023-03-03T16:59:11.419Z,3.40
2023-03-03T17:01:50.781Z,2.97
2023-03-03T17:04:35.914Z,2.80
2023-03-03T17:07:13.006Z,2.90
2023-03-03T17:10:06.849Z,3.92
2023-03-03T17:12:51.021Z,4.03
2023-03-03T17:15:30.355Z,4.20
2023-03-03T17:18:09.403Z,4.70
2023-03-03T17:20:45.635Z,4.35
2023-03-03T17:23:40.605Z,3.60
2023-03-03T17:26:24.142Z,3.90
2023-03-03T17:29:05.320Z,2.85
2023-03-03T17:31:40.935Z,3.40
2023-03-03T17:34:25.018Z,4.05
2023-03-03T17:37:04.760Z,4.50
2023-03-03T17:39:53.820Z,3.95
2023-03-03T17:42:33.075Z,3.70
2023-03-03T17:45:07.635Z,3.78
2023-03-03T17:47:54.444Z,3.47
2023-03-03T17:50:36.466Z,3.40
2023-03-03T17:53:27.740Z,4.05
2023-03-03T17:56:04.588Z,4.90
2023-03-03T17:58:53.140Z,4.03
2023-03-03T18:01:38.831Z,4.15
2023-03-03T18:04:17.924Z,4.00
2023-03-03T18:07:12.749Z,3.60
2023-03-03T18:09:51.051Z,3.72
2023-03-03T18:12:27.983Z,4.20
2023-03-03T18:15:28.950Z,5.13
2023-03-03T18:18:06.898Z,4.45
2023-03-03T18:21:01.003Z,3.70
2023-03-03T18:23:39.809Z,4.30
2023-03-03T18:26:41.435Z,3.83
2023-03-03T18:29:24.170Z,4.00
2023-03-03T18:32:19.675Z,5.15
2023-03-03T18:34:47.892Z,5.40
2023-03-03T18:37:40.150Z,5.50
2023-03-03T18:40:29.075Z,4.50
2023-03-03T18:42:57.095Z,3.80
2023-03-03T18:45:51.626Z,3.95
2023-03-03T18:48:41.147Z,4.60
2023-03-03T18:51:09.617Z,4.80
2023-03-03T18:53:38.075Z,4.43
2023-03-03T18:56:13.136Z,4.30
2023-03-03T18:58:41.988Z,4.63
2023-03-03T19:01:41.773Z,4.30
2023-03-03T19:04:25.398Z,4.50
2023-03-03T19:07:26.708Z,3.37
2023-03-03T19:10:01.762Z,4.43
2023-03-03T19:13:00.440Z,4.15
2023-03-03T19:15:51.896Z,3.95
2023-03-03T19:18:23.626Z,3.90
2023-03-03T19:20:56.942Z,3.50
2023-03-03T19:23:32.492Z,3.58
2023-03-03T19:26:37.176Z,4.85
2023-03-03T19:29:14.511Z,3.87
2023-03-03T19:31:48.255Z,4.03
2023-03-03T19:34:24.089Z,4.37
2023-03-03T19:37:02.209Z,4.38
2023-03-03T19:39:51.686Z,3.93
2023-03-03T19:42:30.957Z,4.05
2023-03-03T19:45:11.799Z,3.25
2023-03-03T19:47:45.851Z,4.05
2023-03-03T19:50:30.726Z,4.20
2023-03-03T19:53:07.381Z,4.13
2023-03-03T19:55:45.491Z,3.72
2023-03-03T19:58:23.726Z,4.05
2023-03-03T20:00:58.316Z,3.67
2023-03-03T20:04:02.179Z,4.30
2023-03-03T20:06:38.852Z,4.50
2023-03-03T20:09:20.752Z,3.60
2023-03-03T20:12:03.996Z,3.63
2023-03-03T20:14:46.062Z,3.90
2023-03-03T20:17:38.695Z,4.00
2023-03-03T20:20:22.360Z,3.80
2023-03-03T20:23:02.385Z,5.05
2023-03-03T20:25:37.299Z,4.80
2023-03-03T20:28:15.019Z,4.15
2023-03-03T20:31:03.901Z,4.50
2023-03-03T20:33:46.160Z,4.40
2023-03-03T20:36:25.637Z,3.88
2023-03-03T20:39:04.296Z,4.25
2023-03-03T20:41:45.929Z,5.30
2023-03-03T20:44:25.673Z,5.03
2023-03-03T20:47:02.423Z,4.40
2023-03-03T20:49:46.058Z,4.70
2023-03-03T20:52:21.267Z,4.50
2023-03-03T20:54:55.921Z,4.10
2023-03-03T20:57:34.041Z,4.23
2023-03-03T21:00:06.195Z,4.55
2023-03-03T21:02:43.464Z,5.00
2023-03-03T21:05:14.760Z,4.50
2023-03-03T21:07:53.487Z,4.00
2023-03-03T21:10:24.265Z,4.90
2023-03-03T21:12:54.280Z,4.60
2023-03-03T21:15:29.447Z,4.57
2023-03-03T21:17:58.711Z,5.10
2023-03-03T21:20:30.646Z,5.13
2023-03-03T21:23:00.141Z,4.88
2023-03-03T21:25:45.950Z,4.90
2023-03-03T21:28:17.233Z,4.90
2023-03-03T21:31:08.922Z,4.82
2023-03-03T21:33:41.620Z,4.90
2023-03-03T21:36:10.370Z,4.88
2023-03-03T21:38:40.016Z,5.10
2023-03-03T21:41:08.916Z,4.85
2023-03-03T21:43:40.062Z,4.53
2023-03-03T21:46:08.513Z,4.20
2023-03-03T21:48:36.539Z,4.30
2023-03-03T21:51:04.682Z,3.90
2023-03-03T21:53:32.667Z,4.28
2023-03-03T21:56:00.695Z,5.37
2023-03-03T21:58:28.744Z,4.40
2023-03-03T22:00:58.196Z,4.28
2023-03-03T22:03:26.954Z,4.90
2023-03-03T22:05:54.890Z,3.55
2023-03-03T22:08:23.637Z,3.90
2023-03-03T22:10:55.864Z,5.10
2023-03-03T22:13:25.278Z,4.75
2023-03-03T22:15:54.008Z,4.60
2023-03-03T22:18:23.464Z,4.03
2023-03-03T22:20:51.575Z,3.80
2023-03-03T22:23:19.942Z,4.20
2023-03-03T22:25:47.948Z,4.43
2023-03-03T22:28:16.010Z,4.85
2023-03-03T22:30:44.101Z,5.22
2023-03-03T22:33:12.200Z,4.05
2023-03-03T22:35:41.627Z,4.32
2023-03-03T22:38:09.609Z,4.10
2023-03-03T22:40:37.553Z,4.57
2023-03-03T22:43:06.423Z,4.80
2023-03-03T22:45:34.813Z,4.70
2023-03-03T22:48:02.825Z,4.28
2023-03-03T22:50:30.813Z,4.93
2023-03-03T22:53:00.158Z,4.25
2023-03-03T22:55:29.278Z,4.30
2023-03-03T22:57:57.278Z,3.80
2023-03-03T23:00:25.389Z,4.30
2023-03-03T23:02:53.469Z,4.30
2023-03-03T23:05:21.644Z,4.30
2023-03-03T23:07:49.687Z,4.75
2023-03-03T23:10:19.454Z,4.10
2023-03-03T23:12:47.410Z,3.83
2023-03-03T23:15:16.241Z,4.47
2023-03-03T23:17:46.372Z,4.40
2023-03-03T23:20:16.174Z,4.15
2023-03-03T23:22:44.332Z,4.53
2023-03-03T23:25:13.789Z,3.90
2023-03-03T23:27:43.740Z,3.38
2023-03-03T23:30:14.446Z,3.45
2023-03-03T23:32:42.444Z,3.75
2023-03-03T23:35:11.278Z,3.70
2023-03-03T23:37:39.389Z,3.75
2023-03-03T23:40:08.750Z,4.05
2023-03-03T23:42:36.746Z,4.20
2023-03-03T23:45:07.311Z,3.00
2023-03-03T23:47:35.349Z,3.20
2023-03-03T23:50:03.439Z,3.92
2023-03-03T23:52:31.384Z,3.65
2023-03-03T23:54:59.342Z,3.30
2023-03-03T23:57:27.352Z,3.90
2023-03-03T23:59:55.351Z,4.00
